Trout Lake, Washington
Current Conditions -  °F | °C
As of 6:39 PM on Thursday 27 Nov 2014 (Local Time) from K4S2 Reporting Station
Overcast Overcast  
Wind Chill: 52°   Ceiling: 4800
Heat Index: 52°   Visibility: 10mi
Dew Point: 50°   Wind: 0mph
Humidity: 94%   Direction: NA
Pressure: 29.86"   Gusts: NA
Location:  46°N, 121.53°W
Report Text: K4S2 280239Z AUTO 00000KT 10SM BKN048 OVC055 11/10 A2986 RMK AO2 SLP128 T01100100
Loading
Personal Weather Stations






























Interactive Weather Map New forecast layout! Learn more

10-Day Weather Forecast

Advertisements
Track Severe Weather on mobile